Time;durP1;ratioP1;P1;durP2;ratioP2;P2;SDS_P1;SDS_P2;PMS_P1;PMS_P2;Temp;Humidity;BMP_temperature;BMP_pressure;BME280_temperature;BME280_humidity;BME280_pressure;Samples;Min_cycle;Max_cycle;Signal;HPM_P1;HPM_P2
2023/11/03 00:01:01;;;;;;;6.03;1.27;;;8.20;1.00;;;;;;5033273;28;20422;-74
2023/11/03 00:03:32;;;;;;;6.90;1.70;;;8.30;1.00;;;;;;5028083;28;20860;-73
2023/11/03 00:05:58;;;;;;;2.07;1.00;;;8.30;1.00;;;;;;5023520;28;20789;-74
2023/11/03 00:08:37;;;;;;;2.33;1.03;;;8.30;1.00;;;;;;5021783;28;20839;-73
2023/11/03 00:11:07;;;;;;;2.93;1.00;;;8.30;1.00;;;;;;5024410;28;20428;-73
2023/11/03 00:13:54;;;;;;;2.47;1.20;;;8.20;1.00;;;;;;5019509;28;20436;-74
2023/11/03 00:16:24;;;;;;;1.37;1.10;;;8.20;1.00;;;;;;5029437;28;20407;-73
2023/11/03 00:18:58;;;;;;;11.37;1.47;;;8.20;1.00;;;;;;5015325;28;20462;-73
2023/11/03 00:21:24;;;;;;;4.17;1.40;;;8.10;1.00;;;;;;5028915;28;20899;-73
2023/11/03 00:23:50;;;;;;;3.63;1.10;;;8.10;1.00;;;;;;5022622;28;20463;-73
2023/11/03 00:26:16;;;;;;;3.03;0.97;;;8.20;1.00;;;;;;5018574;28;20176;-74
2023/11/03 00:28:42;;;;;;;6.43;1.10;;;8.30;1.00;;;;;;5021702;28;20436;-74
2023/11/03 00:31:08;;;;;;;4.90;0.97;;;8.30;1.00;;;;;;5031810;28;20469;-73
2023/11/03 00:33:34;;;;;;;9.37;1.00;;;8.30;1.00;;;;;;5033167;28;20451;-73
2023/11/03 00:36:19;;;;;;;7.33;1.07;;;8.30;1.00;;;;;;5018795;28;20176;-73
2023/11/03 00:42:06;;;;;;;6.67;1.17;;;8.50;1.00;;;;;;5020397;28;20386;-82
2023/11/03 00:47:54;;;;;;;4.43;1.00;;;8.60;1.00;;;;;;5006356;28;20196;-83
2023/11/03 00:54:12;;;;;;;7.20;1.20;;;8.60;1.00;;;;;;5029372;28;20256;-82
2023/11/03 01:00:00;;;;;;;2.80;1.00;;;8.60;1.00;;;;;;5001157;28;20396;-82
2023/11/03 01:05:48;;;;;;;1.80;1.20;;;8.70;1.00;;;;;;5011291;28;20650;-82
2023/11/03 01:08:14;;;;;;;4.83;1.00;;;8.70;1.00;;;;;;5025360;28;20438;-83
2023/11/03 01:20:48;;;;;;;4.73;0.90;;;8.60;1.00;;;;;;5028127;28;20383;-83
2023/11/03 01:27:14;;;;;;;7.10;1.47;;;8.60;1.00;;;;;;5013620;28;20949;-82
2023/11/03 01:30:12;;;;;;;0.80;0.80;;;8.60;1.00;;;;;;5020882;28;20419;-82
2023/11/03 01:36:24;;;;;;;1.37;1.00;;;8.60;1.00;;;;;;5020432;28;20410;-82
2023/11/03 01:48:56;;;;;;;1.20;1.10;;;8.50;1.00;;;;;;5025327;28;20558;-82
2023/11/03 01:54:55;;;;;;;6.73;1.13;;;8.70;1.00;;;;;;5017046;28;20403;-74
2023/11/03 01:57:21;;;;;;;9.80;1.60;;;8.60;1.00;;;;;;5021856;28;20762;-73
2023/11/03 01:59:49;;;;;;;5.10;1.27;;;8.60;1.00;;;;;;5028215;28;20435;-74
2023/11/03 02:02:19;;;;;;;2.17;1.10;;;8.60;1.00;;;;;;5021469;28;20507;-74
2023/11/03 02:05:02;;;;;;;1.63;1.30;;;8.60;1.00;;;;;;5024959;28;20527;-74
2023/11/03 02:07:31;;;;;;;1.20;0.80;;;8.70;1.00;;;;;;5014931;28;20443;-74
2023/11/03 02:10:42;;;;;;;6.33;1.10;;;8.80;1.00;;;;;;5032844;28;20413;-82
2023/11/03 02:20:42;;;;;;;10.67;0.97;;;8.80;1.00;;;;;;5016778;28;20775;-82
2023/11/03 02:23:12;;;;;;;2.27;1.13;;;8.90;1.00;;;;;;5015804;28;20454;-82
2023/11/03 02:25:43;;;;;;;2.50;1.00;;;8.90;1.00;;;;;;5026788;28;20902;-74
2023/11/03 02:28:13;;;;;;;6.70;1.20;;;8.80;1.00;;;;;;5016249;28;20435;-74
2023/11/03 02:30:39;;;;;;;8.87;1.30;;;8.80;1.00;;;;;;5020339;28;20429;-74
2023/11/03 02:33:05;;;;;;;1.40;0.93;;;8.80;1.00;;;;;;5020549;28;20410;-73
2023/11/03 02:35:31;;;;;;;3.53;1.00;;;8.90;1.00;;;;;;5027846;28;20419;-74
2023/11/03 02:37:58;;;;;;;4.43;0.73;;;9.00;1.00;;;;;;5020807;28;20443;-74
2023/11/03 02:40:24;;;;;;;2.70;0.73;;;9.00;1.00;;;;;;5012652;28;20563;-73
2023/11/03 02:43:12;;;;;;;5.03;1.23;;;9.10;1.00;;;;;;5016768;28;20761;-74
2023/11/03 02:45:43;;;;;;;6.10;1.40;;;9.10;1.00;;;;;;5015493;28;20934;-74
2023/11/03 02:48:09;;;;;;;4.43;0.90;;;9.10;1.00;;;;;;5014258;28;20473;-73
2023/11/03 02:50:35;;;;;;;2.03;0.90;;;9.20;1.00;;;;;;5026894;28;20408;-74
2023/11/03 02:53:01;;;;;;;2.00;1.10;;;;;;;;;;5013618;28;21015;-74
2023/11/03 02:58:48;;;;;;;6.03;1.03;;;9.30;1.00;;;;;;5018654;28;20402;-82
2023/11/03 03:01:36;;;;;;;4.90;0.70;;;9.30;1.00;;;;;;5023085;28;20428;-82
2023/11/03 03:07:45;;;;;;;1.23;0.80;;;9.30;1.00;;;;;;5011960;28;20421;-81
2023/11/03 03:10:13;;;;;;;0.70;0.70;;;9.30;1.00;;;;;;5019710;28;20558;-74
2023/11/03 03:12:46;;;;;;;3.40;0.80;;;9.40;1.00;;;;;;5020260;28;20426;-73
2023/11/03 03:15:12;;;;;;;12.57;1.10;;;9.40;1.00;;;;;;5010365;28;20423;-73
2023/11/03 03:17:38;;;;;;;4.10;1.30;;;9.40;1.00;;;;;;5019286;28;20435;-74
2023/11/03 03:20:05;;;;;;;2.03;1.00;;;9.50;1.00;;;;;;5012590;28;20180;-73
2023/11/03 03:22:37;;;;;;;1.63;1.03;;;9.60;1.00;;;;;;5012167;28;20464;-73
2023/11/03 03:25:08;;;;;;;3.10;1.30;;;9.50;1.00;;;;;;5010961;28;20542;-73
2023/11/03 03:27:37;;;;;;;8.50;1.10;;;9.60;1.00;;;;;;5012050;28;20490;-74
2023/11/03 03:30:03;;;;;;;4.60;1.13;;;9.60;1.00;;;;;;5011669;28;20432;-73
2023/11/03 03:32:43;;;;;;;2.60;0.80;;;9.70;1.00;;;;;;5016781;28;20430;-74
2023/11/03 03:35:08;;;;;;;7.30;0.80;;;9.70;1.00;;;;;;5019737;28;20935;-74
2023/11/03 03:37:34;;;;;;;5.37;0.90;;;;;;;;;;5032048;28;20439;-74
2023/11/03 03:43:22;;;;;;;1.93;0.70;;;9.70;1.00;;;;;;5003650;28;20413;-82
2023/11/03 03:46:30;;;;;;;2.10;0.80;;;9.70;1.00;;;;;;5022982;28;20443;-81
2023/11/03 03:48:56;;;;;;;5.80;0.80;;;9.70;1.00;;;;;;5017660;28;20170;-82
2023/11/03 03:54:44;;;;;;;1.80;0.80;;;9.70;1.00;;;;;;5026244;28;20946;-82
2023/11/03 04:07:15;;;;;;;1.40;0.93;;;9.70;1.00;;;;;;5008794;28;20451;-82
2023/11/03 04:09:42;;;;;;;3.20;1.00;;;;;;;;;;5014231;28;20454;-73
2023/11/03 04:12:13;;;;;;;7.37;1.50;;;9.70;1.00;;;;;;5019950;28;20481;-73
2023/11/03 04:14:43;;;;;;;4.70;0.80;;;9.70;1.00;;;;;;5026132;28;20427;-73
2023/11/03 04:17:08;;;;;;;1.27;0.80;;;9.70;1.00;;;;;;5015626;28;20419;-73
2023/11/03 04:19:36;;;;;;;5.90;0.70;;;9.60;1.00;;;;;;5020483;28;20434;-73
2023/11/03 04:22:02;;;;;;;5.30;1.00;;;9.70;1.00;;;;;;5020153;28;20938;-73
2023/11/03 04:24:31;;;;;;;2.20;0.80;;;9.70;1.00;;;;;;5029747;28;20485;-74
2023/11/03 04:27:36;;;;;;;1.43;1.17;;;9.80;1.00;;;;;;5014296;28;20219;-81
2023/11/03 04:30:02;;;;;;;1.47;0.77;;;9.80;1.00;;;;;;5005459;28;20518;-81
2023/11/03 04:39:26;;;;;;;1.80;0.80;;;9.70;1.00;;;;;;5015042;28;20532;-83
2023/11/03 04:45:16;;;;;;;3.60;0.70;;;9.80;1.00;;;;;;5017428;28;20453;-82
2023/11/03 04:54:26;;;;;;;1.17;0.67;;;;;;;;;;5018526;28;20461;-86
2023/11/03 05:00:14;;;;;;;2.70;0.93;;;9.70;1.00;;;;;;5033067;28;20437;-80
2023/11/03 05:03:01;;;;;;;3.17;1.00;;;9.80;1.00;;;;;;5014622;28;20431;-81
2023/11/03 05:05:48;;;;;;;3.73;1.00;;;9.60;1.00;;;;;;5016480;28;20455;-81
2023/11/03 05:08:19;;;;;;;4.00;1.17;;;9.60;1.00;;;;;;5022198;28;20415;-80
2023/11/03 05:10:55;;;;;;;2.10;0.90;;;9.70;1.00;;;;;;5013989;28;20439;-83
2023/11/03 05:17:18;;;;;;;5.37;1.30;;;9.60;1.00;;;;;;5014851;28;20772;-83
2023/11/03 05:19:44;;;;;;;5.13;0.93;;;9.60;1.00;;;;;;5030336;28;20459;-83
2023/11/03 05:28:55;;;;;;;2.10;0.93;;;9.70;1.00;;;;;;5023430;28;20504;-83
2023/11/03 05:31:21;;;;;;;2.03;0.90;;;9.80;1.00;;;;;;5026951;28;21005;-83
2023/11/03 05:34:02;;;;;;;3.73;1.00;;;9.70;1.00;;;;;;5025005;28;20438;-83
2023/11/03 05:37:11;;;;;;;1.33;0.60;;;9.70;1.00;;;;;;5010464;28;20197;-84
2023/11/03 05:39:37;;;;;;;5.13;1.00;;;9.70;1.00;;;;;;5014675;28;20469;-83
2023/11/03 05:42:07;;;;;;;5.53;1.00;;;9.80;1.00;;;;;;5025659;28;20421;-82
2023/11/03 05:51:16;;;;;;;2.63;0.60;;;9.80;1.00;;;;;;5014731;28;20367;-81
2023/11/03 06:03:55;;;;;;;2.40;1.10;;;9.60;1.00;;;;;;5009529;28;20447;-80
2023/11/03 06:10:24;;;;;;;2.83;1.47;;;9.60;1.00;;;;;;5006089;28;20541;-80
2023/11/03 06:13:01;;;;;;;4.73;0.97;;;9.70;1.00;;;;;;5013822;28;20510;-84
2023/11/03 06:15:43;;;;;;;1.80;1.00;;;9.70;1.00;;;;;;5018553;28;20934;-82
2023/11/03 06:22:12;;;;;;;6.43;0.83;;;9.70;1.00;;;;;;5014338;28;20429;-83
2023/11/03 06:34:44;;;;;;;5.40;1.17;;;9.70;1.00;;;;;;5002490;28;20441;-82
2023/11/03 06:37:11;;;;;;;7.00;1.30;;;9.70;1.00;;;;;;5009284;28;20457;-83
2023/11/03 06:39:38;;;;;;;1.07;0.77;;;9.70;1.00;;;;;;5011364;28;20644;-82
2023/11/03 06:42:13;;;;;;;2.97;0.97;;;9.70;1.00;;;;;;5029370;28;20470;-83
2023/11/03 06:48:00;;;;;;;1.00;1.00;;;9.70;1.00;;;;;;5001544;28;20427;-83
2023/11/03 06:53:48;;;;;;;5.00;1.23;;;9.60;1.00;;;;;;5012837;28;20423;-81
2023/11/03 06:59:36;;;;;;;2.40;0.97;;;;;;;;;;5013756;28;20171;-84
2023/11/03 07:05:24;;;;;;;6.13;1.00;;;9.60;1.00;;;;;;5016142;28;20564;-82
2023/11/03 07:08:24;;;;;;;5.90;1.10;;;9.60;1.00;;;;;;5022419;28;20956;-81
2023/11/03 07:11:12;;;;;;;1.50;0.90;;;9.60;1.00;;;;;;5012889;28;20185;-82
2023/11/03 07:14:00;;;;;;;1.67;1.10;;;9.70;1.00;;;;;;5018170;28;20453;-77
2023/11/03 07:20:18;;;;;;;9.83;1.60;;;9.60;1.00;;;;;;5009090;28;20414;-77
2023/11/03 07:22:44;;;;;;;2.60;0.80;;;9.70;1.00;;;;;;5029236;28;20407;-77
2023/11/03 07:25:56;;;;;;;0.93;0.80;;;9.70;1.00;;;;;;5025747;28;20976;-77
2023/11/03 07:31:43;;;;;;;8.13;1.47;;;9.80;1.00;;;;;;5023680;28;20418;-81
2023/11/03 07:34:54;;;;;;;7.50;1.00;;;9.90;1.00;;;;;;5015566;28;20522;-81
2023/11/03 07:37:20;;;;;;;0.80;0.80;;;9.90;1.00;;;;;;5013660;28;20599;-81
2023/11/03 07:39:49;;;;;;;9.63;1.00;;;10.00;1.00;;;;;;5018068;28;20443;-82
2023/11/03 07:42:38;;;;;;;2.70;0.90;;;9.90;1.00;;;;;;5020174;28;20922;-81
2023/11/03 07:45:06;;;;;;;8.20;0.93;;;9.90;1.00;;;;;;5029158;28;20455;-82
2023/11/03 07:47:52;;;;;;;0.83;0.83;;;10.00;1.00;;;;;;5016279;28;20432;-81
2023/11/03 07:53:49;;;;;;;2.00;0.80;;;10.00;1.00;;;;;;5015678;28;20933;-81
2023/11/03 07:56:25;;;;;;;13.77;1.93;;;;;;;;;;5014368;28;20494;-81
2023/11/03 07:59:04;;;;;;;5.80;1.10;;;;;;;;;;5005617;28;20432;-77
2023/11/03 08:01:31;;;;;;;6.57;1.10;;;10.30;1.00;;;;;;5020704;28;20453;-77
2023/11/03 08:04:01;;;;;;;6.60;0.90;;;;;;;;;;5031675;28;20510;-78
2023/11/03 08:10:25;;;;;;;1.77;0.90;;;10.20;1.00;;;;;;5004997;28;20494;-77
2023/11/03 08:16:13;;;;;;;2.73;0.63;;;10.40;1.00;;;;;;5023049;28;20426;-82
2023/11/03 08:22:07;;;;;;;26.17;1.47;;;10.40;1.00;;;;;;5022426;28;20389;-82
2023/11/03 08:24:33;;;;;;;10.23;1.10;;;10.40;1.00;;;;;;5017965;28;20500;-83
2023/11/03 08:27:02;;;;;;;2.10;0.73;;;10.50;1.00;;;;;;5010566;28;20986;-82
2023/11/03 08:29:27;;;;;;;1.83;1.13;;;10.50;1.00;;;;;;5028533;28;20176;-82
2023/11/03 08:31:54;;;;;;;2.13;1.07;;;10.50;1.00;;;;;;5019175;28;20427;-82
2023/11/03 08:34:20;;;;;;;2.63;1.20;;;10.50;1.00;;;;;;5020098;28;20195;-82
2023/11/03 08:37:11;;;;;;;2.97;1.60;;;10.60;1.00;;;;;;5016057;28;20417;-81
2023/11/03 08:39:37;;;;;;;3.63;1.17;;;10.70;1.00;;;;;;5018572;28;20291;-81
2023/11/03 08:42:49;;;;;;;4.90;1.27;;;10.60;1.00;;;;;;5019324;28;20868;-81
2023/11/03 08:48:49;;;;;;;4.27;1.10;;;10.60;1.00;;;;;;5009097;28;20448;-77
2023/11/03 08:51:36;;;;;;;4.97;0.90;;;10.80;1.00;;;;;;5018000;28;20432;-77
2023/11/03 08:57:26;;;;;;;2.90;0.93;;;10.70;1.00;;;;;;5015089;28;20478;-76
2023/11/03 09:03:13;;;;;;;2.03;0.90;;;10.80;1.00;;;;;;5018634;28;20451;-77
2023/11/03 09:05:49;;;;;;;4.20;1.30;;;10.80;1.00;;;;;;5024502;28;20494;-77
2023/11/03 09:08:19;;;;;;;5.77;1.00;;;10.80;1.00;;;;;;5024831;28;20543;-77
2023/11/03 09:18:07;;;;;;;3.80;1.03;;;10.80;1.00;;;;;;4998452;28;20427;-80
2023/11/03 09:21:13;;;;;;;6.77;1.20;;;10.80;1.00;;;;;;4995251;28;20401;-80
2023/11/03 09:30:23;;;;;;;4.27;1.50;;;10.80;1.00;;;;;;4996079;28;20950;-81
2023/11/03 09:32:49;;;;;;;6.03;1.03;;;10.80;1.00;;;;;;5013949;28;20419;-80
2023/11/03 09:39:14;;;;;;;3.07;0.90;;;10.80;1.00;;;;;;5022711;28;20431;-80
2023/11/03 09:45:11;;;;;;;1.10;1.00;;;10.70;1.00;;;;;;5008888;28;20591;-75
2023/11/03 09:47:45;;;;;;;2.37;1.40;;;10.80;1.00;;;;;;5011129;28;20435;-76
2023/11/03 09:50:25;;;;;;;2.70;1.30;;;10.80;1.00;;;;;;5014329;28;20515;-74
2023/11/03 09:53:22;;;;;;;4.87;0.87;;;11.00;1.00;;;;;;5022116;28;20769;-75
2023/11/03 09:55:50;;;;;;;1.83;0.80;;;11.20;1.00;;;;;;5020186;28;20450;-74
2023/11/03 09:58:16;;;;;;;2.27;1.10;;;11.30;1.00;;;;;;5023029;28;20430;-74
2023/11/03 10:00:42;;;;;;;5.70;0.80;;;;;;;;;;5025836;28;20511;-80
2023/11/03 10:06:31;;;;;;;4.10;0.90;;;11.40;1.00;;;;;;5014131;28;20415;-81
2023/11/03 10:09:01;;;;;;;4.90;0.87;;;11.30;1.00;;;;;;5024288;28;20925;-81
2023/11/03 10:11:37;;;;;;;4.37;1.03;;;11.30;1.00;;;;;;5024548;28;20436;-80
2023/11/03 10:14:07;;;;;;;3.03;1.00;;;11.40;1.00;;;;;;5012970;28;20431;-75
2023/11/03 10:17:24;;;;;;;4.33;1.20;;;11.50;1.00;;;;;;5018812;28;20584;-75
2023/11/03 10:19:52;;;;;;;4.57;1.20;;;11.40;1.00;;;;;;4999276;28;20436;-74
2023/11/03 10:22:31;;;;;;;5.90;1.17;;;11.50;1.00;;;;;;5012963;28;20434;-75
2023/11/03 10:25:01;;;;;;;5.53;1.30;;;11.40;1.00;;;;;;5004189;28;20513;-75
2023/11/03 10:27:31;;;;;;;2.00;0.90;;;11.40;1.00;;;;;;5015116;28;21001;-75
2023/11/03 10:30:05;;;;;;;3.67;1.10;;;11.30;1.00;;;;;;5013116;28;20432;-75
2023/11/03 10:32:44;;;;;;;5.73;1.70;;;11.40;1.00;;;;;;5015334;28;20769;-74
2023/11/03 10:35:12;;;;;;;5.27;1.37;;;11.60;1.00;;;;;;5023885;28;20950;-73
2023/11/03 10:37:39;;;;;;;2.10;0.87;;;11.60;1.00;;;;;;5005592;28;20568;-75
2023/11/03 10:40:06;;;;;;;6.60;1.00;;;11.60;1.00;;;;;;5005679;28;20447;-75
2023/11/03 10:42:55;;;;;;;3.53;1.10;;;11.70;1.00;;;;;;5013546;28;20442;-85
2023/11/03 10:46:11;;;;;;;8.57;1.30;;;11.90;1.00;;;;;;5014675;28;20487;-80
2023/11/03 10:49:15;;;;;;;3.90;1.03;;;12.00;1.00;;;;;;5007379;28;20493;-79
2023/11/03 10:52:18;;;;;;;2.10;1.20;;;12.20;1.00;;;;;;5025062;28;20419;-79
2023/11/03 10:58:08;;;;;;;2.30;1.00;;;11.90;1.00;;;;;;5017849;28;20406;-79
2023/11/03 11:01:01;;;;;;;2.77;0.90;;;11.70;1.00;;;;;;5007496;28;20409;-75
2023/11/03 11:04:03;;;;;;;8.20;0.93;;;11.70;1.00;;;;;;5036871;28;20395;-75
2023/11/03 11:06:53;;;;;;;3.77;1.00;;;11.60;1.00;;;;;;4945330;29;20410;-75
2023/11/03 11:10:13;;;;;;;3.17;0.90;;;11.60;1.00;;;;;;4931542;29;20778;-75
2023/11/03 11:13:27;;;;;;;8.10;1.10;;;11.60;1.00;;;;;;4947820;29;20766;-75
2023/11/03 11:19:54;;;;;;;0.67;0.67;;;11.30;1.00;;;;;;4917375;29;20400;-79
2023/11/03 11:23:12;;;;;;;2.87;0.87;;;11.40;1.00;;;;;;4885443;29;20445;-79
2023/11/03 11:25:43;;;;;;;6.93;1.00;;;11.60;1.00;;;;;;4880534;29;20484;-79
2023/11/03 11:28:39;;;;;;;8.07;1.03;;;11.70;1.00;;;;;;4868270;29;20454;-80
2023/11/03 11:31:37;;;;;;;6.47;1.10;;;12.00;1.00;;;;;;4834093;29;20896;-76
2023/11/03 11:37:22;;;;;;;1.70;0.90;;;12.10;1.00;;;;;;4846631;29;21048;-76
2023/11/03 11:40:30;;;;;;;6.40;1.03;;;12.10;1.00;;;;;;4828582;29;20780;-76
2023/11/03 11:42:59;;;;;;;2.57;0.80;;;12.20;1.00;;;;;;4878404;29;20417;-76
2023/11/03 11:45:26;;;;;;;2.60;0.90;;;12.40;1.00;;;;;;4903909;29;20448;-75
2023/11/03 11:47:53;;;;;;;4.83;1.10;;;12.50;1.00;;;;;;4892042;29;21011;-75
2023/11/03 11:50:48;;;;;;;4.83;0.90;;;12.50;1.00;;;;;;4899434;29;20416;-76
2023/11/03 11:53:28;;;;;;;6.30;1.50;;;12.60;1.00;;;;;;4923422;29;20929;-75
2023/11/03 11:55:55;;;;;;;6.67;1.00;;;12.60;1.00;;;;;;4938236;28;20423;-76
2023/11/03 11:58:21;;;;;;;5.67;1.07;;;12.50;1.00;;;;;;4981064;28;20916;-76
2023/11/03 12:00:49;;;;;;;3.20;1.30;;;12.60;1.00;;;;;;4981674;28;20425;-79
2023/11/03 12:03:43;;;;;;;10.23;1.40;;;12.70;1.00;;;;;;4973825;28;20927;-79
2023/11/03 12:06:13;;;;;;;3.33;1.07;;;12.60;1.00;;;;;;4974140;28;20470;-80
2023/11/03 12:09:01;;;;;;;7.13;1.17;;;12.40;1.00;;;;;;5021146;28;20420;-80
2023/11/03 12:11:26;;;;;;;5.93;1.30;;;12.40;1.00;;;;;;5018002;28;20426;-79
2023/11/03 12:20:37;;;;;;;4.80;0.90;;;12.40;1.00;;;;;;5016450;28;20396;-80
2023/11/03 12:23:19;;;;;;;3.77;1.30;;;12.40;1.00;;;;;;5024087;28;20427;-79
2023/11/03 12:29:26;;;;;;;3.37;1.00;;;12.50;1.00;;;;;;5026515;28;20453;-79
2023/11/03 12:32:31;;;;;;;2.73;1.20;;;12.60;1.00;;;;;;5026322;28;20403;-79
2023/11/03 12:35:29;;;;;;;7.50;1.27;;;12.50;1.00;;;;;;5013273;28;20410;-79
2023/11/03 12:37:55;;;;;;;1.13;0.70;;;12.50;1.00;;;;;;5004059;28;20448;-79
2023/11/03 12:43:48;;;;;;;3.73;0.70;;;12.60;1.00;;;;;;5022062;28;20549;-79
2023/11/03 12:49:35;;;;;;;3.13;0.90;;;12.50;1.00;;;;;;5013622;28;20887;-79
2023/11/03 12:52:19;;;;;;;6.33;1.00;;;12.60;1.00;;;;;;5013329;28;20505;-79
2023/11/03 12:55:18;;;;;;;2.03;1.10;;;12.50;1.00;;;;;;5004477;28;20545;-79
2023/11/03 13:01:13;;;;;;;7.93;1.40;;;12.50;1.00;;;;;;5009511;28;20461;-83
2023/11/03 13:07:01;;;;;;;3.50;0.93;;;12.40;1.00;;;;;;5015321;28;20514;-85
2023/11/03 13:09:26;;;;;;;6.53;1.33;;;12.30;1.00;;;;;;5014536;28;20920;-81
2023/11/03 13:12:13;;;;;;;3.17;1.23;;;12.20;1.00;;;;;;5017491;28;20189;-78
2023/11/03 13:14:49;;;;;;;4.53;0.87;;;12.30;1.00;;;;;;5013446;28;20177;-79
2023/11/03 13:17:24;;;;;;;8.17;1.00;;;12.40;1.00;;;;;;5004904;28;20488;-76
2023/11/03 13:20:15;;;;;;;4.00;1.00;;;12.70;1.00;;;;;;5006763;28;20435;-81
2023/11/03 13:26:02;;;;;;;5.63;1.20;;;12.70;1.00;;;;;;4996670;28;20517;-79
2023/11/03 13:28:43;;;;;;;7.30;1.50;;;12.80;1.00;;;;;;4994902;28;20387;-77
2023/11/03 13:34:31;;;;;;;2.87;1.07;;;13.20;1.00;;;;;;5013943;28;20414;-77
2023/11/03 13:37:12;;;;;;;4.97;1.87;;;13.20;1.00;;;;;;5014343;28;20383;-78
2023/11/03 13:39:49;;;;;;;4.53;0.90;;;13.00;1.00;;;;;;4994781;28;20185;-78
2023/11/03 13:48:41;;;;;;;8.23;1.03;;;13.00;1.00;;;;;;5010997;28;20403;-78
2023/11/03 13:54:37;;;;;;;1.67;1.20;;;12.90;1.00;;;;;;5018557;28;20211;-78
2023/11/03 13:57:14;;;;;;;5.77;1.10;;;12.60;1.00;;;;;;5000523;28;20450;-78
2023/11/03 14:03:04;;;;;;;8.03;1.60;;;12.60;1.00;;;;;;5011967;28;20447;-79
2023/11/03 14:05:30;;;;;;;2.23;1.03;;;12.60;1.00;;;;;;5006959;28;20545;-79
2023/11/03 14:07:57;;;;;;;9.87;1.10;;;12.50;1.00;;;;;;5014548;28;20501;-79
2023/11/03 14:13:49;;;;;;;1.23;0.90;;;12.60;1.00;;;;;;5014207;28;20406;-79
2023/11/03 14:16:15;;;;;;;6.17;1.10;;;12.70;1.00;;;;;;5014288;28;20400;-82
2023/11/03 14:22:03;;;;;;;4.10;1.43;;;12.60;1.00;;;;;;5018474;28;20426;-82
2023/11/03 14:28:25;;;;;;;10.93;1.13;;;12.30;1.00;;;;;;5016062;28;20199;-83
2023/11/03 14:31:07;;;;;;;8.83;1.10;;;12.30;1.00;;;;;;5010969;28;20399;-83
2023/11/03 14:36:54;;;;;;;3.83;1.40;;;12.30;1.00;;;;;;5000760;28;20411;-79
2023/11/03 14:39:38;;;;;;;1.37;0.70;;;12.40;1.00;;;;;;5004727;28;20421;-79
2023/11/03 14:42:05;;;;;;;10.70;1.80;;;12.30;1.00;;;;;;5021021;28;20219;-77
2023/11/03 14:51:14;;;;;;;3.93;1.40;;;11.90;1.00;;;;;;5010253;28;20477;-81
2023/11/03 14:53:49;;;;;;;6.80;1.10;;;12.00;1.00;;;;;;5003528;28;20901;-82
2023/11/03 14:56:38;;;;;;;5.20;1.53;;;12.10;1.00;;;;;;5022681;28;20650;-82
2023/11/03 14:59:04;;;;;;;8.27;1.80;;;12.10;1.00;;;;;;4995050;28;20479;-81
2023/11/03 15:01:49;;;;;;;4.90;1.50;;;12.00;1.00;;;;;;5015010;28;20414;-81
2023/11/03 15:08:19;;;;;;;8.27;1.53;;;11.70;1.00;;;;;;5001315;28;20498;-81
2023/11/03 15:11:11;;;;;;;5.47;1.37;;;11.70;1.00;;;;;;5021873;28;20835;-82
2023/11/03 15:14:13;;;;;;;1.47;0.80;;;11.60;1.00;;;;;;5016116;28;20441;-82
2023/11/03 15:16:39;;;;;;;3.73;1.00;;;11.20;1.00;;;;;;5013979;28;20398;-81
2023/11/03 15:19:30;;;;;;;3.93;1.10;;;11.20;1.00;;;;;;5016992;28;20434;-78
2023/11/03 15:22:13;;;;;;;3.40;1.00;;;11.10;1.00;;;;;;5016846;28;20184;-77
2023/11/03 15:25:01;;;;;;;10.23;1.23;;;11.10;1.00;;;;;;5013427;28;20502;-78
2023/11/03 15:27:26;;;;;;;4.80;1.37;;;11.00;1.00;;;;;;5013328;28;20497;-78
2023/11/03 15:33:35;;;;;;;5.90;1.00;;;10.90;1.00;;;;;;5011997;28;20216;-78
2023/11/03 15:36:31;;;;;;;8.70;1.87;;;10.70;1.00;;;;;;5013609;28;20900;-78
2023/11/03 15:39:37;;;;;;;4.73;1.80;;;10.70;1.00;;;;;;5015262;28;20451;-78
2023/11/03 15:45:24;;;;;;;8.03;1.80;;;10.30;1.00;;;;;;5009915;28;21005;-78
2023/11/03 15:48:14;;;;;;;2.00;1.80;;;10.20;1.00;;;;;;5017057;28;20454;-81
2023/11/03 15:57:31;;;;;;;19.27;1.90;;;9.80;1.00;;;;;;4994903;28;20460;-82
2023/11/03 16:06:43;;;;;;;4.03;1.60;;;9.50;1.00;;;;;;5017655;28;20541;-84
2023/11/03 16:09:21;;;;;;;13.27;1.40;;;9.50;1.00;;;;;;5013582;28;20501;-83
2023/11/03 16:12:37;;;;;;;2.63;1.07;;;9.50;1.00;;;;;;4999634;28;20986;-83
2023/11/03 16:15:25;;;;;;;3.23;1.50;;;9.30;1.00;;;;;;5033928;28;20430;-85
2023/11/03 16:18:14;;;;;;;9.43;1.63;;;9.30;1.00;;;;;;5028042;28;20965;-84
2023/11/03 16:20:49;;;;;;;14.23;1.70;;;9.20;1.00;;;;;;5016265;28;20431;-83
2023/11/03 16:24:02;;;;;;;3.03;1.60;;;9.10;1.00;;;;;;5013640;28;20489;-83
2023/11/03 16:26:31;;;;;;;5.33;1.90;;;9.10;1.00;;;;;;5017794;28;20466;-83
2023/11/03 16:29:37;;;;;;;5.60;1.57;;;9.10;1.00;;;;;;5014161;28;20432;-82
2023/11/03 16:32:10;;;;;;;5.13;1.40;;;9.10;1.00;;;;;;5023735;28;20784;-83
2023/11/03 16:37:58;;;;;;;1.40;1.00;;;8.90;1.00;;;;;;5013054;28;20962;-87
2023/11/03 16:40:31;;;;;;;4.20;1.30;;;8.90;1.00;;;;;;5015464;28;20414;-86
2023/11/03 16:46:37;;;;;;;10.63;2.40;;;8.70;1.00;;;;;;5005141;28;20555;-87
2023/11/03 16:52:39;;;;;;;21.83;3.80;;;8.70;1.00;;;;;;5017811;28;20404;-83
2023/11/03 16:56:01;;;;;;;13.63;1.80;;;8.60;1.00;;;;;;5012787;28;20444;-85
2023/11/03 17:01:49;;;;;;;4.67;1.63;;;8.40;1.00;;;;;;5010115;28;20454;-85
2023/11/03 17:04:35;;;;;;;9.10;1.67;;;8.40;1.00;;;;;;5015767;28;20527;-88
2023/11/03 17:07:25;;;;;;;6.53;1.90;;;8.40;1.00;;;;;;5031595;28;20185;-87
2023/11/03 17:13:49;;;;;;;3.70;1.80;;;8.20;1.00;;;;;;5027994;28;20903;-86
2023/11/03 17:19:38;;;;;;;15.17;1.70;;;8.30;1.00;;;;;;5022781;28;21029;-86
2023/11/03 17:25:26;;;;;;;6.50;1.80;;;;;;;;;;5024652;28;20470;-87
2023/11/03 17:31:37;;;;;;;7.03;1.80;;;8.00;1.00;;;;;;5012082;28;20462;-87
2023/11/03 17:34:07;;;;;;;3.40;1.40;;;8.00;1.00;;;;;;5016419;28;20432;-83
2023/11/03 17:37:12;;;;;;;4.77;1.53;;;8.00;1.00;;;;;;5033533;28;20954;-83
2023/11/03 17:39:55;;;;;;;5.93;2.13;;;7.90;1.00;;;;;;5013103;28;20527;-83
2023/11/03 17:43:01;;;;;;;4.27;2.03;;;7.80;1.00;;;;;;5013255;28;20534;-84
2023/11/03 18:02:17;;;;;;;3.40;1.70;;;;;;;;;;5018312;28;20409;-88
2023/11/03 18:08:05;;;;;;;5.07;2.30;;;7.50;1.00;;;;;;5001654;28;20446;-87
2023/11/03 18:11:19;;;;;;;5.23;2.03;;;7.50;1.00;;;;;;5010536;28;20520;-87
2023/11/03 18:14:37;;;;;;;11.60;3.10;;;7.50;1.00;;;;;;5001892;28;20183;-86
2023/11/03 18:17:31;;;;;;;13.90;2.33;;;7.50;1.00;;;;;;5003421;28;20481;-86
2023/11/03 18:27:32;;;;;;;3.77;2.10;;;7.40;1.00;;;;;;4997915;28;20456;-87
2023/11/03 18:30:31;;;;;;;12.60;2.00;;;7.40;1.00;;;;;;5013127;28;20930;-85
2023/11/03 18:32:57;;;;;;;2.83;2.03;;;7.30;1.00;;;;;;5012034;28;20435;-85
2023/11/03 18:39:09;;;;;;;9.97;2.73;;;7.20;1.00;;;;;;5010852;28;20522;-82
2023/11/03 18:45:13;;;;;;;4.43;2.13;;;7.20;1.00;;;;;;5014136;28;20847;-85
2023/11/03 18:51:02;;;;;;;11.47;2.67;;;7.20;1.00;;;;;;5009814;28;20481;-86
2023/11/03 18:53:43;;;;;;;5.57;2.40;;;7.10;1.00;;;;;;5018116;28;20428;-86
2023/11/03 18:56:14;;;;;;;11.03;2.13;;;7.10;1.00;;;;;;5012445;28;20940;-85
2023/11/03 18:58:39;;;;;;;8.10;2.70;;;7.10;1.00;;;;;;5000625;28;20460;-86
2023/11/03 19:04:29;;;;;;;8.33;2.60;;;7.00;1.00;;;;;;5005925;28;20919;-84
2023/11/03 19:07:00;;;;;;;10.60;3.00;;;7.00;1.00;;;;;;5016613;28;20950;-83
2023/11/03 19:10:07;;;;;;;12.17;2.43;;;7.00;1.00;;;;;;5012148;28;21014;-84
2023/11/03 19:12:37;;;;;;;9.77;2.73;;;7.00;1.00;;;;;;5012176;28;20431;-83
2023/11/03 19:15:06;;;;;;;4.40;2.37;;;7.00;1.00;;;;;;5018942;28;20432;-83
2023/11/03 19:17:32;;;;;;;8.00;2.73;;;7.00;1.00;;;;;;5019910;28;20412;-83
2023/11/03 19:23:24;;;;;;;8.07;3.27;;;7.10;1.00;;;;;;5018768;28;20196;-83
2023/11/03 19:25:56;;;;;;;5.20;2.47;;;7.40;1.00;;;;;;5015471;28;20471;-83
2023/11/03 19:28:21;;;;;;;9.87;2.40;;;7.10;1.00;;;;;;5032961;28;20414;-84
2023/11/03 19:31:01;;;;;;;4.80;2.40;;;7.10;1.00;;;;;;5023782;28;20559;-83
2023/11/03 19:34:01;;;;;;;18.83;2.40;;;7.30;1.00;;;;;;5019194;28;20176;-83
2023/11/03 19:37:07;;;;;;;11.83;2.57;;;7.30;1.00;;;;;;5018572;28;20424;-84
2023/11/03 19:39:49;;;;;;;8.77;2.70;;;7.20;1.00;;;;;;5011009;28;20476;-82
2023/11/03 19:46:13;;;;;;;3.57;1.97;;;7.30;1.00;;;;;;5025726;28;20465;-82
2023/11/03 19:52:00;;;;;;;6.53;1.87;;;7.30;1.00;;;;;;5011149;28;20438;-82
2023/11/03 19:58:37;;;;;;;4.73;1.90;;;7.40;1.00;;;;;;5026993;28;20418;-82
2023/11/03 20:01:03;;;;;;;5.73;1.70;;;7.30;1.00;;;;;;5017387;28;20420;-82
2023/11/03 20:03:35;;;;;;;4.87;1.90;;;7.40;1.00;;;;;;5017572;28;20419;-82
2023/11/03 20:06:08;;;;;;;9.90;2.43;;;7.40;1.00;;;;;;5017530;28;20462;-78
2023/11/03 20:08:36;;;;;;;6.10;1.90;;;7.50;1.00;;;;;;5022774;28;20519;-75
2023/11/03 20:11:02;;;;;;;7.43;1.53;;;7.50;1.00;;;;;;5021140;28;20912;-74
2023/11/03 20:13:37;;;;;;;7.40;1.63;;;7.50;1.00;;;;;;5005360;28;20433;-74
2023/11/03 20:16:04;;;;;;;3.17;1.80;;;7.60;1.00;;;;;;5012917;28;20195;-74
2023/11/03 20:18:31;;;;;;;9.37;2.03;;;7.60;1.00;;;;;;5003888;28;20437;-74
2023/11/03 20:20:58;;;;;;;10.27;2.07;;;7.60;1.00;;;;;;5029202;28;20420;-74
2023/11/03 20:23:27;;;;;;;3.37;1.90;;;7.60;1.00;;;;;;5008201;28;20799;-74
2023/11/03 20:25:53;;;;;;;2.70;1.60;;;;;;;;;;5015876;28;20464;-74
2023/11/03 20:28:19;;;;;;;6.13;1.80;;;7.60;1.00;;;;;;5016367;28;20424;-74
2023/11/03 20:30:45;;;;;;;6.43;2.03;;;7.50;1.00;;;;;;5015837;28;20438;-74